Time;durP1;ratioP1;P1;durP2;ratioP2;P2;SDS_P1;SDS_P2;PMS_P1;PMS_P2;Temp;Humidity;BMP_temperature;BMP_pressure;BME280_temperature;BME280_humidity;BME280_pressure;Samples;Min_cycle;Max_cycle;Signal;HPM_P1;HPM_P2
2024/04/03 00:01:42;;;;;;;8.00;4.30;;;;;;;;;;6246493;23;20085;-82
2024/04/03 00:04:13;;;;;;;8.20;4.13;;;;;;;;;;6270120;23;20470;-80
2024/04/03 00:06:45;;;;;;;13.77;5.55;;;;;;;;;;6273295;23;20049;-80
2024/04/03 00:09:18;;;;;;;8.52;4.18;;;;;;;;;;6295920;23;20355;-81
2024/04/03 00:11:58;;;;;;;8.80;4.32;;;;;;;;;;6249105;23;20033;-80
2024/04/03 00:18:25;;;;;;;9.85;5.13;;;;;;;;;;6148395;23;20423;-80
2024/04/03 00:23:18;;;;;;;8.93;5.07;;;;;;;;;;6154470;23;20433;-80
2024/04/03 00:35:45;;;;;;;9.30;5.35;;;;;;;;;;6274699;23;20038;-80
2024/04/03 00:38:39;;;;;;;6.40;5.00;;;;;;;;;;6277299;23;20030;-80
2024/04/03 00:41:22;;;;;;;6.30;5.00;;;;;;;;;;6250249;23;20069;-80
2024/04/03 00:44:09;;;;;;;11.70;7.65;;;;;;;;;;6269646;23;20746;-81
2024/04/03 00:50:17;;;;;;;13.60;10.63;;;;;;;;;;6177654;23;20076;-80
2024/04/03 00:52:53;;;;;;;13.35;9.45;;;;;;;;;;6174792;23;20030;-80
2024/04/03 00:55:30;;;;;;;14.75;10.02;;;;;;;;;;6248563;23;20521;-81
2024/04/03 00:58:06;;;;;;;15.77;11.45;;;;;;;;;;6273283;23;20360;-80
2024/04/03 01:00:42;;;;;;;14.10;11.65;;;;;;;;;;6296792;23;20019;-80
2024/04/03 01:03:19;;;;;;;11.82;10.07;;;;;;;;;;6297421;23;20022;-80
2024/04/03 01:06:02;;;;;;;13.90;11.35;;;;;;;;;;6247884;23;20062;-80
2024/04/03 01:09:03;;;;;;;12.90;10.85;;;;;;;;;;6249517;23;20030;-80
2024/04/03 01:12:17;;;;;;;14.43;11.10;;;;;;;;;;6294776;23;20121;-80
2024/04/03 01:15:13;;;;;;;10.27;8.98;;;;;;;;;;6271516;23;20027;-80
2024/04/03 01:17:49;;;;;;;9.75;8.73;;;;;;;;;;6295131;23;20056;-81
2024/04/03 01:20:24;;;;;;;14.18;10.40;;;;;;;;;;6262543;23;20053;-80
2024/04/03 01:22:56;;;;;;;12.93;11.02;;;;;;;;;;6248512;23;20113;-80
2024/04/03 01:25:33;;;;;;;11.13;9.35;;;;;;;;;;6272886;23;20081;-80
2024/04/03 01:28:12;;;;;;;11.20;8.95;;;;;;;;;;6271697;23;20026;-81
2024/04/03 01:30:48;;;;;;;12.63;10.25;;;;;;;;;;6272191;23;20109;-81
2024/04/03 01:33:40;;;;;;;12.40;10.02;;;;;;;;;;6272485;23;20363;-80
2024/04/03 01:36:18;;;;;;;10.30;8.48;;;;;;;;;;6272022;23;20100;-80
2024/04/03 01:39:05;;;;;;;10.15;9.25;;;;;;;;;;6272111;23;20462;-80
2024/04/03 01:41:45;;;;;;;10.80;8.95;;;;;;;;;;6271416;23;20478;-80
2024/04/03 01:44:26;;;;;;;10.20;8.95;;;;;;;;;;6247418;23;20529;-80
2024/04/03 01:47:16;;;;;;;11.70;8.85;;;;;;;;;;6273839;23;20033;-82
2024/04/03 01:50:12;;;;;;;10.13;8.27;;;;;;;;;;6249175;23;20105;-80
2024/04/03 01:52:47;;;;;;;10.95;8.35;;;;;;;;;;6273378;23;20021;-80
2024/04/03 01:55:25;;;;;;;9.57;7.65;;;;;;;;;;6271982;23;20057;-80
2024/04/03 02:01:58;;;;;;;10.57;8.65;;;;;;;;;;6198723;23;20706;-81
2024/04/03 02:04:32;;;;;;;13.10;10.10;;;;;;;;;;6243598;23;20169;-80
2024/04/03 02:07:05;;;;;;;12.47;11.17;;;;;;;;;;6296882;23;20023;-80
2024/04/03 02:09:36;;;;;;;13.25;11.57;;;;;;;;;;6295213;23;20022;-80
2024/04/03 02:12:29;;;;;;;;;;;;;;;;;;;;;
2024/04/03 02:15:03;;;;;;;20.40;15.00;;;;;;;;;;6303033;23;20105;-81
2024/04/03 02:17:39;;;;;;;16.38;13.20;;;;;;;;;;6278340;23;20525;-82
2024/04/03 02:20:24;;;;;;;14.07;10.93;;;;;;;;;;6279310;23;20474;-81
2024/04/03 02:22:56;;;;;;;14.60;12.50;;;;;;;;;;6276525;23;20346;-81
2024/04/03 02:28:33;;;;;;;15.82;12.60;;;;;;;;;;6271803;23;20025;-81
2024/04/03 02:31:09;;;;;;;15.10;11.98;;;;;;;;;;6254233;23;20030;-81
2024/04/03 02:33:45;;;;;;;12.77;11.48;;;;;;;;;;6302339;23;20409;-81
2024/04/03 02:36:19;;;;;;;13.43;10.52;;;;;;;;;;6253282;23;20030;-81
2024/04/03 02:39:07;;;;;;;11.98;10.45;;;;;;;;;;6300716;23;20026;-81
2024/04/03 02:41:40;;;;;;;13.77;10.80;;;;;;;;;;6276612;23;20030;-82
2024/04/03 02:44:17;;;;;;;13.43;11.02;;;;;;;;;;6254008;23;20026;-82
2024/04/03 02:47:03;;;;;;;13.85;10.40;;;;;;;;;;6278305;23;20027;-81
2024/04/03 02:49:58;;;;;;;10.63;9.18;;;;;;;;;;6276423;23;20022;-81
2024/04/03 02:52:32;;;;;;;12.85;10.32;;;;;;;;;;6297056;23;20030;-82
2024/04/03 02:55:08;;;;;;;11.93;10.65;;;;;;;;;;6295926;23;20093;-81
2024/04/03 02:57:45;;;;;;;11.60;9.85;;;;;;;;;;6271994;23;20029;-81
2024/04/03 03:00:22;;;;;;;11.98;9.43;;;;;;;;;;6272340;23;20101;-81
2024/04/03 03:02:59;;;;;;;11.70;9.68;;;;;;;;;;6295807;23;20022;-82
2024/04/03 03:05:48;;;;;;;13.35;10.27;;;;;;;;;;6277119;23;20022;-81
2024/04/03 03:08:21;;;;;;;12.43;9.70;;;;;;;;;;6274216;23;20076;-82
2024/04/03 03:10:54;;;;;;;10.02;9.07;;;;;;;;;;6275361;23;20264;-83
2024/04/03 03:13:28;;;;;;;11.15;8.65;;;;;;;;;;6276486;23;20023;-82
2024/04/03 03:16:02;;;;;;;12.20;8.88;;;;;;;;;;6271817;23;20416;-82
2024/04/03 03:18:38;;;;;;;11.45;7.95;;;;;;;;;;6250457;23;20367;-83
2024/04/03 03:21:13;;;;;;;9.57;6.78;;;;;;;;;;6250173;23;20428;-81
2024/04/03 03:23:49;;;;;;;10.18;7.05;;;;;;;;;;6249885;23;20133;-82
2024/04/03 03:26:45;;;;;;;9.55;6.63;;;;;;;;;;6276123;23;20057;-82
2024/04/03 03:29:20;;;;;;;8.93;6.15;;;;;;;;;;6275146;23;20113;-82
2024/04/03 03:32:05;;;;;;;9.17;6.17;;;;;;;;;;6274007;23;20109;-82
2024/04/03 03:35:00;;;;;;;11.57;6.78;;;;;;;;;;6248574;23;20081;-82
2024/04/03 03:41:31;;;;;;;11.05;7.25;;;;;;;;;;6273999;23;20026;-81
2024/04/03 03:44:20;;;;;;;11.30;7.38;;;;;;;;;;6254078;23;20026;-82
2024/04/03 03:46:59;;;;;;;10.50;8.60;;;;;;;;;;6275478;23;20085;-82
2024/04/03 03:55:42;;;;;;;10.52;8.68;;;;;;;;;;6278237;23;20362;-81
2024/04/03 03:58:17;;;;;;;10.20;7.68;;;;;;;;;;6278584;23;20033;-81
2024/04/03 04:04:12;;;;;;;11.35;7.90;;;;;;;;;;6243046;23;21153;-82
2024/04/03 04:29:15;;;;;;;11.43;7.65;;;;;;;;;;6167538;23;20016;-82
2024/04/03 04:31:48;;;;;;;10.25;6.85;;;;;;;;;;6173819;24;20500;-82
2024/04/03 04:34:33;;;;;;;11.05;7.90;;;;;;;;;;6160302;24;20047;-82
2024/04/03 04:37:12;;;;;;;10.13;6.90;;;;;;;;;;6260019;23;20026;-82
2024/04/03 04:40:33;;;;;;;11.38;6.82;;;;;;;;;;6300491;23;20023;-82
2024/04/03 04:47:39;;;;;;;6.97;5.40;;;;;;;;;;6281719;23;20026;-81
2024/04/03 04:50:23;;;;;;;10.48;5.40;;;;;;;;;;6251766;23;20054;-82
2024/04/03 04:56:17;;;;;;;8.63;4.68;;;;;;;;;;6296175;23;20025;-83
2024/04/03 04:58:54;;;;;;;9.70;5.40;;;;;;;;;;6271211;23;20022;-82
2024/04/03 05:01:34;;;;;;;6.82;4.30;;;;;;;;;;6252849;23;20026;-81
2024/04/03 05:04:13;;;;;;;7.05;4.80;;;;;;;;;;6275030;23;20081;-81
2024/04/03 05:07:31;;;;;;;7.68;4.72;;;;;;;;;;6273133;23;20030;-81
2024/04/03 05:10:37;;;;;;;9.32;6.25;;;;;;;;;;6219493;23;20364;-82
2024/04/03 05:13:10;;;;;;;11.23;6.07;;;;;;;;;;6272501;23;20113;-82
2024/04/03 05:15:41;;;;;;;15.57;6.70;;;;;;;;;;6276585;23;20113;-82
2024/04/03 05:18:14;;;;;;;9.38;6.43;;;;;;;;;;6249485;23;20027;-81
2024/04/03 05:20:51;;;;;;;10.77;5.85;;;;;;;;;;6250549;23;20056;-82
2024/04/03 05:23:23;;;;;;;9.00;5.72;;;;;;;;;;6298024;23;20027;-82
2024/04/03 05:25:57;;;;;;;10.75;6.22;;;;;;;;;;6297258;23;20572;-81
2024/04/03 05:28:30;;;;;;;9.75;5.78;;;;;;;;;;6271269;23;20058;-82
2024/04/03 05:31:01;;;;;;;7.25;5.70;;;;;;;;;;6272956;23;20833;-82
2024/04/03 05:33:34;;;;;;;9.93;5.65;;;;;;;;;;6295984;23;20023;-82
2024/04/03 05:36:07;;;;;;;7.53;6.18;;;;;;;;;;6276836;23;20375;-84
2024/04/03 05:38:40;;;;;;;10.65;5.65;;;;;;;;;;6274463;23;20053;-84
2024/04/03 05:41:11;;;;;;;6.88;5.32;;;;;;;;;;6273182;23;20061;-84
2024/04/03 05:43:42;;;;;;;7.68;5.85;;;;;;;;;;6298791;23;20026;-84
2024/04/03 05:46:13;;;;;;;9.38;5.20;;;;;;;;;;6300862;23;20049;-85
2024/04/03 05:48:45;;;;;;;10.77;6.30;;;;;;;;;;6298635;23;20105;-86
2024/04/03 05:51:18;;;;;;;10.43;5.72;;;;;;;;;;6256840;23;20033;-85
2024/04/03 05:53:56;;;;;;;7.07;4.97;;;;;;;;;;6279573;23;20459;-85
2024/04/03 05:56:28;;;;;;;12.82;6.70;;;;;;;;;;6279713;23;20029;-86
2024/04/03 05:59:03;;;;;;;8.05;5.35;;;;;;;;;;6280589;23;20030;-85
2024/04/03 06:01:34;;;;;;;9.65;5.35;;;;;;;;;;6278435;23;20054;-85
2024/04/03 06:04:06;;;;;;;12.07;5.95;;;;;;;;;;6236006;23;20026;-86
2024/04/03 06:06:41;;;;;;;9.85;5.57;;;;;;;;;;6302605;23;20099;-85
2024/04/03 06:09:13;;;;;;;9.35;5.90;;;;;;;;;;6304881;23;20117;-88
2024/04/03 06:11:44;;;;;;;7.57;5.10;;;;;;;;;;6281292;23;20524;-86
2024/04/03 06:14:16;;;;;;;12.88;5.68;;;;;;;;;;6281045;23;20030;-87
2024/04/03 06:16:47;;;;;;;8.45;5.70;;;;;;;;;;6280905;23;20073;-85
2024/04/03 06:19:25;;;;;;;12.83;6.13;;;;;;;;;;6303927;23;20030;-85
2024/04/03 06:21:58;;;;;;;8.20;5.32;;;;;;;;;;6306497;23;20301;-85
2024/04/03 06:24:31;;;;;;;11.73;6.00;;;;;;;;;;6308431;23;20347;-85
2024/04/03 06:27:02;;;;;;;9.38;5.97;;;;;;;;;;6305404;23;20474;-85
2024/04/03 06:29:36;;;;;;;7.95;5.68;;;;;;;;;;6302630;23;20042;-85
2024/04/03 06:32:07;;;;;;;8.68;5.68;;;;;;;;;;6304458;23;20026;-86
2024/04/03 06:34:39;;;;;;;10.73;7.03;;;;;;;;;;6282803;23;20105;-85
2024/04/03 06:37:11;;;;;;;9.20;6.35;;;;;;;;;;6303181;23;20050;-86
2024/04/03 06:39:44;;;;;;;11.25;6.57;;;;;;;;;;6278960;23;20485;-85
2024/04/03 06:42:15;;;;;;;9.90;6.07;;;;;;;;;;6254938;23;20029;-85
2024/04/03 06:44:47;;;;;;;8.82;5.88;;;;;;;;;;6305387;23;20459;-85
2024/04/03 06:47:18;;;;;;;9.50;5.80;;;;;;;;;;6279492;23;20037;-86
2024/04/03 06:49:53;;;;;;;9.82;6.47;;;;;;;;;;6254341;23;20026;-83
2024/04/03 06:52:26;;;;;;;9.75;6.82;;;;;;;;;;6254396;23;20109;-83
2024/04/03 06:55:00;;;;;;;8.82;6.78;;;;;;;;;;6305233;23;20158;-83
2024/04/03 06:57:31;;;;;;;8.18;6.78;;;;;;;;;;6278087;23;20074;-81
2024/04/03 07:00:06;;;;;;;8.25;6.57;;;;;;;;;;6303877;23;20022;-83
2024/04/03 07:02:38;;;;;;;9.88;7.00;;;;;;;;;;6300991;23;20045;-84
2024/04/03 07:05:13;;;;;;;9.77;5.43;;;;;;;;;;6279492;23;20406;-85
2024/04/03 07:07:46;;;;;;;8.40;5.90;;;;;;;;;;6301248;23;20348;-85
2024/04/03 07:10:19;;;;;;;10.05;5.88;;;;;;;;;;6275049;23;20362;-85
2024/04/03 07:12:50;;;;;;;10.52;5.63;;;;;;;;;;6251684;23;20344;-85
2024/04/03 07:15:22;;;;;;;9.70;5.07;;;;;;;;;;6301718;23;20034;-84
2024/04/03 07:17:53;;;;;;;9.82;4.63;;;;;;;;;;6275668;23;20352;-84
2024/04/03 07:20:27;;;;;;;7.75;4.95;;;;;;;;;;6301121;23;20021;-84
2024/04/03 07:32:25;;;;;;;8.57;3.58;;;;;;;;;;6267733;23;20097;-84
2024/04/03 07:35:00;;;;;;;8.13;3.80;;;;;;;;;;6269959;23;20565;-85
2024/04/03 07:37:38;;;;;;;7.22;3.50;;;;;;;;;;6279232;23;20018;-85
2024/04/03 07:46:23;;;;;;;7.15;3.50;;;;;;;;;;6248067;23;21099;-87
2024/04/03 07:48:58;;;;;;;7.15;3.25;;;;;;;;;;6260126;23;20040;-85
2024/04/03 07:51:30;;;;;;;6.25;3.28;;;;;;;;;;6317436;23;20105;-90
2024/04/03 08:00:26;;;;;;;6.32;2.63;;;;;;;;;;6235321;23;20026;-85
2024/04/03 08:18:15;;;;;;;5.38;2.20;;;;;;;;;;5234002;23;20421;-92
2024/04/03 08:20:46;;;;;;;4.88;2.53;;;;;;;;;;5436039;23;20023;-85
2024/04/03 08:23:20;;;;;;;5.47;2.33;;;;;;;;;;5123493;28;20062;-86
2024/04/03 08:25:51;;;;;;;4.63;2.53;;;;;;;;;;5094196;28;20078;-87
2024/04/03 08:28:23;;;;;;;5.78;2.30;;;;;;;;;;5094057;28;20043;-85
2024/04/03 08:30:54;;;;;;;3.72;1.85;;;;;;;;;;5120801;28;20082;-83
2024/04/03 08:33:28;;;;;;;6.22;2.85;;;;;;;;;;5122204;28;20074;-86
2024/04/03 08:35:59;;;;;;;6.78;2.20;;;;;;;;;;5105758;28;20047;-85
2024/04/03 08:38:31;;;;;;;6.50;1.83;;;;;;;;;;5118440;28;20449;-87
2024/04/03 08:41:02;;;;;;;5.32;2.05;;;;;;;;;;5134622;28;20966;-87
2024/04/03 08:43:37;;;;;;;5.63;1.80;;;;;;;;;;5135785;28;20052;-89
2024/04/03 08:46:08;;;;;;;6.25;2.28;;;;;;;;;;5139964;28;20998;-84
2024/04/03 08:48:43;;;;;;;5.93;2.08;;;;;;;;;;5143086;28;20050;-86
2024/04/03 08:51:14;;;;;;;5.72;2.42;;;;;;;;;;5101404;28;20055;-88
2024/04/03 08:53:49;;;;;;;5.68;2.00;;;;;;;;;;5118993;28;20527;-87
2024/04/03 08:56:19;;;;;;;;;;;;;;;;;;5145203;28;20066;-85
2024/04/03 08:58:51;;;;;;;3.83;1.92;;;;;;;;;;5123565;28;19946;-85
2024/04/03 09:01:24;;;;;;;6.57;2.47;;;;;;;;;;5135557;28;20066;-85
2024/04/03 09:03:57;;;;;;;7.47;2.53;;;;;;;;;;5098183;28;20509;-85
2024/04/03 09:06:37;;;;;;;6.07;2.03;;;;;;;;;;5123014;28;20078;-84
2024/04/03 09:09:15;;;;;;;3.25;1.95;;;;;;;;;;5142715;28;20039;-83
2024/04/03 09:11:50;;;;;;;4.65;1.80;;;;;;;;;;5114785;28;20069;-85
2024/04/03 09:14:22;;;;;;;;;;;;;;;;;;5141478;28;20043;-83
2024/04/03 09:16:57;;;;;;;5.35;2.20;;;;;;;;;;5107852;28;19970;-84
2024/04/03 09:19:31;;;;;;;4.30;1.80;;;;;;;;;;5125615;28;20027;-85
2024/04/03 09:22:04;;;;;;;4.72;2.03;;;;;;;;;;5136733;28;20023;-83
2024/04/03 09:24:38;;;;;;;3.55;1.63;;;;;;;;;;5158556;28;20119;-82
2024/04/03 09:27:10;;;;;;;6.25;1.92;;;;;;;;;;5356077;23;20042;-84
2024/04/03 09:32:55;;;;;;;4.85;2.28;;;;;;;;;;5193743;24;20057;-82
2024/04/03 09:35:29;;;;;;;4.72;2.45;;;;;;;;;;5003884;29;20076;-81
2024/04/03 09:38:01;;;;;;;4.32;2.30;;;;;;;;;;5017790;29;20089;-81
2024/04/03 09:40:34;;;;;;;5.38;2.03;;;;;;;;;;5030101;29;20061;-80
2024/04/03 09:43:09;;;;;;;4.55;1.90;;;;;;;;;;5159416;23;20088;-82
2024/04/03 09:45:47;;;;;;;4.32;2.17;;;;;;;;;;5051761;23;20057;-80
2024/04/03 09:48:23;;;;;;;3.90;1.90;;;;;;;;;;5042229;29;20077;-83
2024/04/03 09:50:57;;;;;;;3.72;1.65;;;;;;;;;;5018725;29;20125;-81
2024/04/03 09:53:30;;;;;;;3.92;1.60;;;;;;;;;;5031794;29;20025;-81
2024/04/03 09:56:04;;;;;;;3.47;1.35;;;;;;;;;;5044816;29;20037;-82
2024/04/03 09:58:37;;;;;;;3.83;1.50;;;;;;;;;;5051725;29;20054;-82
2024/04/03 10:01:08;;;;;;;2.60;1.45;;;;;;;;;;5061119;29;20049;-82
2024/04/03 10:03:41;;;;;;;2.55;1.40;;;;;;;;;;5061781;29;20051;-81
2024/04/03 10:06:14;;;;;;;3.95;1.85;;;;;;;;;;5062247;29;20051;-82
2024/04/03 10:08:48;;;;;;;3.20;1.60;;;;;;;;;;5065285;23;20041;-82
2024/04/03 10:11:19;;;;;;;3.90;1.52;;;;;;;;;;5024417;29;20054;-81
2024/04/03 10:13:52;;;;;;;4.45;1.40;;;;;;;;;;5015656;29;20085;-82
2024/04/03 10:16:32;;;;;;;2.42;1.35;;;;;;;;;;5012969;29;20061;-81
2024/04/03 10:19:10;;;;;;;3.45;1.38;;;;;;;;;;5016788;29;20050;-83
2024/04/03 10:21:44;;;;;;;1.95;1.10;;;;;;;;;;5015195;29;20060;-81
2024/04/03 10:24:18;;;;;;;2.53;1.55;;;;;;;;;;5028564;29;20057;-81
2024/04/03 10:26:50;;;;;;;2.95;1.58;;;;;;;;;;4992619;29;20183;-81
2024/04/03 10:29:22;;;;;;;1.67;1.20;;;;;;;;;;5015582;29;20056;-82
2024/04/03 10:31:53;;;;;;;1.88;1.15;;;;;;;;;;5009927;29;20089;-83
2024/04/03 10:34:25;;;;;;;2.35;1.40;;;;;;;;;;4998303;29;20105;-82
2024/04/03 10:37:00;;;;;;;2.95;1.42;;;;;;;;;;5008951;29;20073;-82
2024/04/03 10:39:32;;;;;;;4.95;2.15;;;;;;;;;;5017259;29;23916;-83
2024/04/03 10:42:04;;;;;;;3.10;1.20;;;;;;;;;;4999867;29;20116;-83
2024/04/03 10:44:41;;;;;;;2.35;1.23;;;;;;;;;;5007251;29;20133;-83
2024/04/03 10:47:13;;;;;;;1.33;1.15;;;;;;;;;;4996252;29;20076;-84
2024/04/03 10:49:45;;;;;;;2.50;1.30;;;;;;;;;;4979861;29;20077;-83
2024/04/03 10:52:17;;;;;;;3.90;1.60;;;;;;;;;;4996808;29;20192;-82
2024/04/03 10:54:49;;;;;;;1.70;1.15;;;;;;;;;;4996117;29;20121;-84
2024/04/03 10:57:20;;;;;;;3.78;1.15;;;;;;;;;;4982810;29;20140;-82
2024/04/03 10:59:56;;;;;;;4.18;1.70;;;;;;;;;;5001062;29;20065;-83
2024/04/03 11:02:27;;;;;;;1.38;1.00;;;;;;;;;;4983673;29;20440;-82
2024/04/03 11:05:00;;;;;;;3.55;1.30;;;;;;;;;;4974819;29;20519;-83
2024/04/03 11:07:34;;;;;;;3.53;1.50;;;;;;;;;;4981142;29;20050;-83
2024/04/03 11:10:09;;;;;;;2.75;0.90;;;;;;;;;;4988115;29;20416;-82
2024/04/03 11:12:40;;;;;;;3.20;1.30;;;;;;;;;;4986242;29;20057;-85
2024/04/03 11:15:13;;;;;;;2.03;1.50;;;;;;;;;;5002644;29;20053;-82
2024/04/03 11:17:44;;;;;;;1.63;1.23;;;;;;;;;;4983854;29;20080;-84
2024/04/03 11:20:19;;;;;;;2.85;1.17;;;;;;;;;;4982758;29;20098;-84
2024/04/03 11:22:55;;;;;;;1.58;1.00;;;;;;;;;;4988999;29;20134;-84
2024/04/03 11:25:30;;;;;;;1.83;0.90;;;;;;;;;;5016305;29;20054;-83
2024/04/03 11:28:05;;;;;;;1.95;1.35;;;;;;;;;;4982446;29;20099;-83
2024/04/03 11:30:41;;;;;;;3.45;1.33;;;;;;;;;;4987812;29;20058;-83
2024/04/03 11:33:12;;;;;;;2.30;1.08;;;;;;;;;;5015453;29;20172;-84
2024/04/03 11:35:47;;;;;;;1.40;1.05;;;;;;;;;;5002714;29;20118;-84
2024/04/03 11:38:20;;;;;;;1.80;1.02;;;;;;;;;;4972022;29;20198;-84
2024/04/03 11:40:52;;;;;;;2.50;1.20;;;;;;;;;;4991352;29;20065;-84
2024/04/03 11:43:23;;;;;;;1.15;0.90;;;;;;;;;;5020902;29;20057;-83
2024/04/03 11:45:58;;;;;;;2.55;0.98;;;;;;;;;;4975012;29;20543;-84
2024/04/03 11:48:29;;;;;;;2.63;1.10;;;;;;;;;;5009494;29;20066;-84
2024/04/03 11:51:02;;;;;;;3.15;1.20;;;;;;;;;;4990371;29;20584;-84
2024/04/03 11:53:35;;;;;;;2.63;0.85;;;;;;;;;;4992374;29;20053;-84
2024/04/03 11:56:08;;;;;;;1.48;0.90;;;;;;;;;;4991748;29;20560;-84
2024/04/03 11:58:40;;;;;;;4.22;0.88;;;;;;;;;;5006939;29;20054;-84
2024/04/03 12:01:11;;;;;;;1.10;0.80;;;;;;;;;;5006760;29;20046;-86
2024/04/03 12:03:45;;;;;;;1.50;1.00;;;;;;;;;;5004660;29;20069;-85
2024/04/03 12:06:19;;;;;;;2.08;1.10;;;;;;;;;;4983686;29;20065;-84
2024/04/03 12:08:52;;;;;;;3.25;1.05;;;;;;;;;;4991513;29;20082;-83
2024/04/03 12:11:24;;;;;;;1.75;1.00;;;;;;;;;;5007428;29;20025;-84
2024/04/03 12:13:55;;;;;;;2.95;1.30;;;;;;;;;;5009033;29;20058;-84
2024/04/03 12:16:30;;;;;;;1.75;0.90;;;;;;;;;;5006483;29;20061;-83
2024/04/03 12:19:13;;;;;;;1.55;0.65;;;;;;;;;;4999575;29;20042;-83
2024/04/03 12:21:45;;;;;;;1.05;0.82;;;;;;;;;;5006489;29;20041;-84
2024/04/03 12:24:18;;;;;;;1.08;0.90;;;;;;;;;;4993773;29;20054;-85
2024/04/03 12:26:50;;;;;;;2.03;0.82;;;;;;;;;;4988630;29;20382;-85
2024/04/03 12:29:21;;;;;;;1.58;0.95;;;;;;;;;;4989335;29;20499;-85
2024/04/03 12:31:55;;;;;;;1.05;0.77;;;;;;;;;;4994572;29;20057;-84
2024/04/03 12:34:26;;;;;;;2.38;1.10;;;;;;;;;;5026222;29;20579;-85
2024/04/03 12:36:59;;;;;;;2.20;0.82;;;;;;;;;;4997519;29;20099;-85
2024/04/03 12:39:32;;;;;;;3.05;0.98;;;;;;;;;;5002497;29;20053;-85
2024/04/03 12:42:05;;;;;;;1.23;0.90;;;;;;;;;;5014309;29;20050;-85
2024/04/03 12:44:36;;;;;;;1.90;1.00;;;;;;;;;;4980301;29;20072;-86
2024/04/03 12:47:08;;;;;;;1.35;1.00;;;;;;;;;;5012186;29;20022;-85
2024/04/03 12:49:39;;;;;;;1.35;1.08;;;;;;;;;;4997492;29;20081;-85
2024/04/03 12:52:12;;;;;;;1.20;0.90;;;;;;;;;;4978949;29;20129;-84
2024/04/03 12:54:44;;;;;;;1.77;0.93;;;;;;;;;;5003591;29;20126;-84
2024/04/03 12:57:16;;;;;;;2.60;0.85;;;;;;;;;;5006611;29;20034;-85
2024/04/03 12:59:47;;;;;;;1.50;0.80;;;;;;;;;;5007384;29;20053;-83
2024/04/03 13:02:20;;;;;;;4.50;1.13;;;;;;;;;;4993302;29;20119;-84
2024/04/03 13:04:54;;;;;;;1.13;0.70;;;;;;;;;;5010997;29;20158;-84
2024/04/03 13:07:26;;;;;;;1.92;0.80;;;;;;;;;;4985045;29;20045;-84
2024/04/03 13:09:59;;;;;;;1.50;0.70;;;;;;;;;;5007904;29;20675;-84
2024/04/03 13:12:33;;;;;;;2.08;1.00;;;;;;;;;;4994654;29;20097;-84
2024/04/03 13:15:04;;;;;;;0.55;0.55;;;;;;;;;;5010992;29;20057;-84
2024/04/03 13:17:36;;;;;;;1.48;0.70;;;;;;;;;;4991560;29;20054;-85
2024/04/03 13:20:09;;;;;;;1.63;0.60;;;;;;;;;;4996527;29;20049;-84
2024/04/03 13:22:41;;;;;;;1.27;1.00;;;;;;;;;;4993976;29;20152;-84
2024/04/03 13:25:15;;;;;;;1.38;0.70;;;;;;;;;;5008539;29;20558;-84
2024/04/03 13:27:47;;;;;;;0.85;0.60;;;;;;;;;;5008770;29;20078;-84
2024/04/03 13:30:18;;;;;;;1.58;0.80;;;;;;;;;;5010756;29;20050;-84
2024/04/03 13:32:50;;;;;;;1.05;0.70;;;;;;;;;;5012349;29;20046;-84
2024/04/03 13:35:21;;;;;;;1.75;0.70;;;;;;;;;;4999921;29;20472;-85
2024/04/03 13:37:53;;;;;;;1.27;0.80;;;;;;;;;;5010119;29;20049;-84
2024/04/03 13:40:27;;;;;;;1.85;0.80;;;;;;;;;;4997219;29;20084;-86
2024/04/03 13:42:59;;;;;;;1.17;0.70;;;;;;;;;;5007410;29;20079;-86
2024/04/03 13:45:31;;;;;;;1.60;0.73;;;;;;;;;;4992353;29;20064;-86
2024/04/03 13:48:28;;;;;;;1.90;0.80;;;;;;;;;;5081605;23;20539;-85
2024/04/03 13:51:00;;;;;;;1.17;0.60;;;;;;;;;;5004083;29;20588;-85
2024/04/03 13:53:35;;;;;;;0.80;0.70;;;;;;;;;;4999786;29;20057;-84
2024/04/03 13:56:11;;;;;;;1.38;0.77;;;;;;;;;;5000369;29;20064;-85
2024/04/03 13:58:43;;;;;;;1.35;1.23;;;;;;;;;;4977241;29;20117;-84
2024/04/03 14:01:14;;;;;;;2.28;1.20;;;;;;;;;;4976463;29;20066;-84
2024/04/03 14:03:46;;;;;;;1.13;0.60;;;;;;;;;;4992846;29;20168;-84
2024/04/03 14:06:18;;;;;;;1.05;0.70;;;;;;;;;;5005002;29;20056;-84
2024/04/03 14:08:52;;;;;;;1.35;1.05;;;;;;;;;;4996685;29;20068;-86
2024/04/03 14:11:23;;;;;;;;;;;;;;;;;;4990926;29;20117;-84
2024/04/03 14:14:03;;;;;;;1.70;1.08;;;;;;;;;;4990653;29;19935;-85
2024/04/03 14:16:36;;;;;;;1.95;1.20;;;;;;;;;;5006276;29;20050;-86
2024/04/03 14:19:08;;;;;;;1.63;1.20;;;;;;;;;;4994216;29;20045;-85
2024/04/03 14:21:41;;;;;;;1.23;0.90;;;;;;;;;;5004956;29;20050;-85
2024/04/03 14:24:12;;;;;;;2.58;0.88;;;;;;;;;;5000016;29;20057;-86
2024/04/03 14:26:44;;;;;;;1.35;0.70;;;;;;;;;;5008322;29;20124;-85
2024/04/03 14:29:18;;;;;;;3.80;0.80;;;;;;;;;;5009973;29;20050;-85
2024/04/03 14:31:49;;;;;;;1.45;0.70;;;;;;;;;;4995917;29;20038;-84
2024/04/03 14:34:23;;;;;;;0.95;0.50;;;;;;;;;;4996346;29;20057;-84
2024/04/03 14:36:55;;;;;;;0.70;0.70;;;;;;;;;;4998398;29;20053;-84
2024/04/03 14:39:30;;;;;;;0.87;0.63;;;;;;;;;;5061194;23;20076;-84
2024/04/03 14:42:01;;;;;;;2.13;0.90;;;;;;;;;;5048909;29;20595;-83
2024/04/03 14:44:35;;;;;;;1.77;0.70;;;;;;;;;;5025532;29;20064;-83
2024/04/03 14:47:06;;;;;;;2.10;1.00;;;;;;;;;;5030922;29;20049;-83
2024/04/03 14:49:38;;;;;;;2.10;0.90;;;;;;;;;;5048489;29;20752;-83
2024/04/03 14:52:11;;;;;;;1.08;0.60;;;;;;;;;;5008594;29;20071;-83
2024/04/03 14:54:49;;;;;;;1.42;1.00;;;;;;;;;;5034895;29;20064;-82
2024/04/03 14:57:20;;;;;;;1.48;0.90;;;;;;;;;;5049131;29;20119;-80
2024/04/03 14:59:53;;;;;;;1.30;0.77;;;;;;;;;;5021485;29;20071;-81
2024/04/03 15:02:27;;;;;;;1.08;0.80;;;;;;;;;;5025000;29;20147;-84
2024/04/03 15:05:00;;;;;;;2.00;1.00;;;;;;;;;;5006724;29;20060;-81
2024/04/03 15:07:32;;;;;;;0.90;0.70;;;;;;;;;;5028311;29;20067;-80
2024/04/03 15:10:05;;;;;;;2.20;0.98;;;;;;;;;;5049130;29;20049;-80
2024/04/03 15:12:36;;;;;;;2.42;1.10;;;;;;;;;;5042789;29;20542;-81
2024/04/03 15:15:11;;;;;;;1.23;1.10;;;;;;;;;;5029892;29;20049;-81
2024/04/03 15:17:43;;;;;;;1.92;1.20;;;;;;;;;;5026249;29;20053;-82
2024/04/03 15:20:16;;;;;;;1.00;0.90;;;;;;;;;;5025880;29;20060;-81
2024/04/03 15:22:48;;;;;;;3.13;1.00;;;;;;;;;;5036130;29;20061;-81
2024/04/03 15:25:20;;;;;;;1.05;0.95;;;;;;;;;;5026577;29;20165;-81
2024/04/03 15:27:53;;;;;;;2.50;1.30;;;;;;;;;;5019005;29;20101;-81
2024/04/03 15:30:26;;;;;;;2.40;1.10;;;;;;;;;;5036632;29;20080;-81
2024/04/03 15:32:58;;;;;;;1.77;1.33;;;;;;;;;;5029594;29;20532;-81
2024/04/03 15:35:30;;;;;;;1.60;1.33;;;;;;;;;;5036623;29;20048;-81
2024/04/03 15:38:01;;;;;;;2.85;1.50;;;;;;;;;;5022740;29;20053;-81
2024/04/03 15:40:34;;;;;;;1.35;1.25;;;;;;;;;;5039441;29;20104;-81
2024/04/03 15:43:06;;;;;;;1.80;1.10;;;;;;;;;;5039800;29;20147;-81
2024/04/03 15:45:40;;;;;;;1.75;1.40;;;;;;;;;;5019779;29;20104;-81
2024/04/03 15:48:11;;;;;;;1.67;1.00;;;;;;;;;;5036606;29;20053;-81
2024/04/03 15:50:43;;;;;;;1.80;1.10;;;;;;;;;;5007661;29;20630;-81
2024/04/03 15:53:15;;;;;;;1.50;1.17;;;;;;;;;;5044270;29;20051;-81
2024/04/03 15:55:47;;;;;;;1.60;1.25;;;;;;;;;;5031328;29;20057;-82
2024/04/03 15:58:19;;;;;;;1.65;1.30;;;;;;;;;;5039742;29;20168;-81
2024/04/03 16:00:53;;;;;;;2.05;1.52;;;;;;;;;;5034923;29;20057;-80
2024/04/03 16:03:24;;;;;;;1.80;1.52;;;;;;;;;;5038917;29;20523;-80
2024/04/03 16:05:58;;;;;;;2.22;1.48;;;;;;;;;;5059058;29;20084;-81
2024/04/03 16:08:29;;;;;;;2.50;1.55;;;;;;;;;;5030184;29;20774;-80
2024/04/03 16:11:01;;;;;;;2.08;1.40;;;;;;;;;;5027783;29;20053;-80
2024/04/03 16:13:35;;;;;;;1.85;1.15;;;;;;;;;;5031188;29;20064;-80
2024/04/03 16:16:09;;;;;;;1.42;0.93;;;;;;;;;;5045323;29;20037;-81
2024/04/03 16:18:42;;;;;;;3.20;1.20;;;;;;;;;;5064694;24;20048;-83
2024/04/03 16:21:15;;;;;;;1.92;1.30;;;;;;;;;;5035679;29;20080;-79
2024/04/03 16:23:46;;;;;;;1.88;1.10;;;;;;;;;;5050147;29;20056;-81
2024/04/03 16:26:19;;;;;;;2.40;1.13;;;;;;;;;;5063232;29;20582;-79
2024/04/03 16:28:50;;;;;;;2.75;1.30;;;;;;;;;;5045943;29;20440;-83
2024/04/03 16:31:23;;;;;;;2.08;1.30;;;;;;;;;;5049282;29;20061;-80
2024/04/03 16:33:55;;;;;;;1.48;1.23;;;;;;;;;;5020073;29;20468;-81
2024/04/03 16:36:26;;;;;;;1.27;1.00;;;;;;;;;;5059371;29;20053;-80
2024/04/03 16:38:57;;;;;;;1.60;1.05;;;;;;;;;;5025191;29;20049;-80
2024/04/03 16:41:32;;;;;;;1.70;1.08;;;;;;;;;;5057746;29;20110;-80
2024/04/03 16:44:04;;;;;;;1.17;0.95;;;;;;;;;;5320703;23;20053;-82
2024/04/03 16:46:42;;;;;;;2.10;1.00;;;;;;;;;;5203753;23;20101;-90
2024/04/03 16:49:17;;;;;;;1.02;0.85;;;;;;;;;;5048889;29;21166;-91
2024/04/03 16:51:49;;;;;;;1.63;0.90;;;;;;;;;;5044865;29;20048;-92
2024/04/03 16:54:22;;;;;;;1.95;1.30;;;;;;;;;;5051369;29;20029;-90
2024/04/03 16:57:01;;;;;;;1.77;1.25;;;;;;;;;;5084341;24;20033;-80
2024/04/03 17:15:29;;;;;;;1.73;1.10;;;;;;;;;;5201420;23;20103;-83
2024/04/03 17:18:00;;;;;;;1.77;1.00;;;;;;;;;;5060386;29;20084;-82
2024/04/03 17:23:39;;;;;;;1.13;0.88;;;;;;;;;;5838074;23;20044;-82
2024/04/03 17:38:52;;;;;;;2.42;0.80;;;;;;;;;;5668267;23;20040;31
2024/04/03 18:03:13;;;;;;;2.28;1.98;;;;;;;;;;5919730;23;20048;-82
2024/04/03 18:28:02;;;;;;;5.05;3.00;;;;;;;;;;6117697;23;20086;-82
2024/04/03 19:04:52;;;;;;;5.07;3.47;;;;;;;;;;5012599;29;20066;-82
2024/04/03 19:07:24;;;;;;;5.38;3.20;;;;;;;;;;5026313;29;20037;-83